sensor_id;sensor_type;location;lat;lon;timestamp;temperature;humidity
5226;DHT22;2632;51.666;7.146;2024-02-23T00:00:02;7.70;88.80
5226;DHT22;2632;51.666;7.146;2024-02-23T00:02:32;7.50;89.00
5226;DHT22;2632;51.666;7.146;2024-02-23T00:04:58;7.50;89.50
5226;DHT22;2632;51.666;7.146;2024-02-23T00:07:25;7.50;90.10
5226;DHT22;2632;51.666;7.146;2024-02-23T00:09:52;7.50;90.00
5226;DHT22;2632;51.666;7.146;2024-02-23T00:12:18;7.50;89.50
5226;DHT22;2632;51.666;7.146;2024-02-23T00:14:45;7.30;89.30
5226;DHT22;2632;51.666;7.146;2024-02-23T00:17:12;7.30;90.00
5226;DHT22;2632;51.666;7.146;2024-02-23T00:19:39;7.30;90.00
5226;DHT22;2632;51.666;7.146;2024-02-23T00:22:06;7.30;90.30
5226;DHT22;2632;51.666;7.146;2024-02-23T00:24:34;7.20;88.80
5226;DHT22;2632;51.666;7.146;2024-02-23T00:27:02;7.30;90.10
5226;DHT22;2632;51.666;7.146;2024-02-23T00:29:29;7.10;89.30
5226;DHT22;2632;51.666;7.146;2024-02-23T00:31:56;7.20;89.90
5226;DHT22;2632;51.666;7.146;2024-02-23T00:34:22;7.00;90.10
5226;DHT22;2632;51.666;7.146;2024-02-23T00:36:49;7.00;90.50
5226;DHT22;2632;51.666;7.146;2024-02-23T00:39:16;7.00;90.30
5226;DHT22;2632;51.666;7.146;2024-02-23T00:41:42;6.90;90.20
5226;DHT22;2632;51.666;7.146;2024-02-23T00:44:09;6.80;90.10
5226;DHT22;2632;51.666;7.146;2024-02-23T00:46:36;6.80;90.00
5226;DHT22;2632;51.666;7.146;2024-02-23T00:49:03;6.80;90.10
5226;DHT22;2632;51.666;7.146;2024-02-23T00:51:29;6.70;89.20
5226;DHT22;2632;51.666;7.146;2024-02-23T00:53:56;6.70;89.20
5226;DHT22;2632;51.666;7.146;2024-02-23T00:56:23;6.70;89.70
5226;DHT22;2632;51.666;7.146;2024-02-23T00:59:01;6.80;88.20
5226;DHT22;2632;51.666;7.146;2024-02-23T01:01:27;6.80;89.40
5226;DHT22;2632;51.666;7.146;2024-02-23T01:03:55;7.00;89.80
5226;DHT22;2632;51.666;7.146;2024-02-23T01:06:21;7.00;88.30
5226;DHT22;2632;51.666;7.146;2024-02-23T01:08:48;6.90;88.10
5226;DHT22;2632;51.666;7.146;2024-02-23T01:11:15;6.90;88.50
5226;DHT22;2632;51.666;7.146;2024-02-23T01:13:42;6.90;88.90
5226;DHT22;2632;51.666;7.146;2024-02-23T01:16:08;6.90;88.90
5226;DHT22;2632;51.666;7.146;2024-02-23T01:18:35;6.90;88.50
5226;DHT22;2632;51.666;7.146;2024-02-23T01:21:02;7.00;90.40
5226;DHT22;2632;51.666;7.146;2024-02-23T01:23:28;6.90;88.20
5226;DHT22;2632;51.666;7.146;2024-02-23T01:25:55;6.90;88.00
5226;DHT22;2632;51.666;7.146;2024-02-23T01:28:21;6.90;87.30
5226;DHT22;2632;51.666;7.146;2024-02-23T01:30:48;6.80;87.80
5226;DHT22;2632;51.666;7.146;2024-02-23T01:33:15;6.90;88.20
5226;DHT22;2632;51.666;7.146;2024-02-23T01:35:42;6.90;89.00
5226;DHT22;2632;51.666;7.146;2024-02-23T01:38:09;6.90;87.80
5226;DHT22;2632;51.666;7.146;2024-02-23T01:40:35;6.90;87.40
5226;DHT22;2632;51.666;7.146;2024-02-23T01:43:04;6.90;87.10
5226;DHT22;2632;51.666;7.146;2024-02-23T01:45:31;6.90;87.10
5226;DHT22;2632;51.666;7.146;2024-02-23T01:47:59;6.90;86.80
5226;DHT22;2632;51.666;7.146;2024-02-23T01:50:27;7.00;86.80
5226;DHT22;2632;51.666;7.146;2024-02-23T01:52:57;7.00;86.90
5226;DHT22;2632;51.666;7.146;2024-02-23T01:55:25;7.10;85.60
5226;DHT22;2632;51.666;7.146;2024-02-23T01:57:53;7.00;85.00
5226;DHT22;2632;51.666;7.146;2024-02-23T02:00:20;7.00;85.50
5226;DHT22;2632;51.666;7.146;2024-02-23T02:02:48;7.10;86.30
5226;DHT22;2632;51.666;7.146;2024-02-23T02:05:15;7.10;86.20
5226;DHT22;2632;51.666;7.146;2024-02-23T02:07:42;7.20;85.10
5226;DHT22;2632;51.666;7.146;2024-02-23T02:10:09;7.10;85.90
5226;DHT22;2632;51.666;7.146;2024-02-23T02:12:36;7.10;86.10
5226;DHT22;2632;51.666;7.146;2024-02-23T02:15:03;7.10;85.90
5226;DHT22;2632;51.666;7.146;2024-02-23T02:17:30;7.10;85.20
5226;DHT22;2632;51.666;7.146;2024-02-23T02:20:03;7.10;85.30
5226;DHT22;2632;51.666;7.146;2024-02-23T02:22:34;7.10;85.50
5226;DHT22;2632;51.666;7.146;2024-02-23T02:25:01;7.20;86.80
5226;DHT22;2632;51.666;7.146;2024-02-23T02:27:28;7.20;85.60
5226;DHT22;2632;51.666;7.146;2024-02-23T02:29:54;7.20;84.70
5226;DHT22;2632;51.666;7.146;2024-02-23T02:32:21;7.30;85.20
5226;DHT22;2632;51.666;7.146;2024-02-23T02:34:48;7.20;84.60
5226;DHT22;2632;51.666;7.146;2024-02-23T02:37:14;7.20;84.90
5226;DHT22;2632;51.666;7.146;2024-02-23T02:39:41;7.20;85.80
5226;DHT22;2632;51.666;7.146;2024-02-23T02:42:08;7.20;85.00
5226;DHT22;2632;51.666;7.146;2024-02-23T02:44:35;7.20;85.20
5226;DHT22;2632;51.666;7.146;2024-02-23T02:47:01;7.20;84.40
5226;DHT22;2632;51.666;7.146;2024-02-23T02:49:28;7.20;83.80
5226;DHT22;2632;51.666;7.146;2024-02-23T02:51:54;7.20;84.50
5226;DHT22;2632;51.666;7.146;2024-02-23T02:54:21;7.30;83.90
5226;DHT22;2632;51.666;7.146;2024-02-23T02:56:48;7.20;82.90
5226;DHT22;2632;51.666;7.146;2024-02-23T02:59:16;7.20;82.30
5226;DHT22;2632;51.666;7.146;2024-02-23T03:01:45;7.10;82.50
5226;DHT22;2632;51.666;7.146;2024-02-23T03:04:13;7.10;82.50
5226;DHT22;2632;51.666;7.146;2024-02-23T03:06:40;7.10;84.10
5226;DHT22;2632;51.666;7.146;2024-02-23T03:09:06;7.10;84.20
5226;DHT22;2632;51.666;7.146;2024-02-23T03:11:33;7.10;83.20
5226;DHT22;2632;51.666;7.146;2024-02-23T03:14:00;7.00;83.40
5226;DHT22;2632;51.666;7.146;2024-02-23T03:16:27;7.00;85.20
5226;DHT22;2632;51.666;7.146;2024-02-23T03:18:55;7.00;84.50
5226;DHT22;2632;51.666;7.146;2024-02-23T03:21:22;7.00;83.90
5226;DHT22;2632;51.666;7.146;2024-02-23T03:23:48;7.00;84.20
5226;DHT22;2632;51.666;7.146;2024-02-23T03:26:15;7.00;85.30
5226;DHT22;2632;51.666;7.146;2024-02-23T03:28:43;7.00;84.10
5226;DHT22;2632;51.666;7.146;2024-02-23T03:31:10;7.10;84.10
5226;DHT22;2632;51.666;7.146;2024-02-23T03:33:37;7.10;85.60
5226;DHT22;2632;51.666;7.146;2024-02-23T03:36:04;6.90;83.30
5226;DHT22;2632;51.666;7.146;2024-02-23T03:38:31;7.00;84.90
5226;DHT22;2632;51.666;7.146;2024-02-23T03:40:58;7.10;85.60
5226;DHT22;2632;51.666;7.146;2024-02-23T03:43:25;7.10;85.80
5226;DHT22;2632;51.666;7.146;2024-02-23T03:45:52;7.00;84.10
5226;DHT22;2632;51.666;7.146;2024-02-23T03:48:18;7.00;84.70
5226;DHT22;2632;51.666;7.146;2024-02-23T03:50:45;7.00;83.40
5226;DHT22;2632;51.666;7.146;2024-02-23T03:53:12;7.10;84.50
5226;DHT22;2632;51.666;7.146;2024-02-23T03:55:39;7.00;83.70
5226;DHT22;2632;51.666;7.146;2024-02-23T03:58:05;7.30;84.90
5226;DHT22;2632;51.666;7.146;2024-02-23T04:00:32;7.30;84.30
5226;DHT22;2632;51.666;7.146;2024-02-23T04:02:59;7.20;83.60
5226;DHT22;2632;51.666;7.146;2024-02-23T04:05:26;7.20;84.20
5226;DHT22;2632;51.666;7.146;2024-02-23T04:07:52;7.10;83.10
5226;DHT22;2632;51.666;7.146;2024-02-23T04:10:19;7.20;84.10
5226;DHT22;2632;51.666;7.146;2024-02-23T04:12:47;7.10;83.70
5226;DHT22;2632;51.666;7.146;2024-02-23T04:15:13;7.20;83.80
5226;DHT22;2632;51.666;7.146;2024-02-23T04:17:40;7.10;83.70
5226;DHT22;2632;51.666;7.146;2024-02-23T04:20:08;7.20;83.60
5226;DHT22;2632;51.666;7.146;2024-02-23T04:22:37;7.10;83.70
5226;DHT22;2632;51.666;7.146;2024-02-23T04:25:04;7.10;83.40
5226;DHT22;2632;51.666;7.146;2024-02-23T04:27:31;7.00;83.70
5226;DHT22;2632;51.666;7.146;2024-02-23T04:29:58;7.00;83.20
5226;DHT22;2632;51.666;7.146;2024-02-23T04:32:24;7.00;83.60
5226;DHT22;2632;51.666;7.146;2024-02-23T04:34:51;7.10;83.90
5226;DHT22;2632;51.666;7.146;2024-02-23T04:37:18;7.10;83.30
5226;DHT22;2632;51.666;7.146;2024-02-23T04:39:44;7.10;83.60
5226;DHT22;2632;51.666;7.146;2024-02-23T04:42:11;7.10;83.40
5226;DHT22;2632;51.666;7.146;2024-02-23T04:44:38;7.20;83.70
5226;DHT22;2632;51.666;7.146;2024-02-23T04:47:05;7.30;82.60
5226;DHT22;2632;51.666;7.146;2024-02-23T04:49:32;7.20;82.40
5226;DHT22;2632;51.666;7.146;2024-02-23T04:51:59;7.20;83.10
5226;DHT22;2632;51.666;7.146;2024-02-23T04:54:26;7.10;83.10
5226;DHT22;2632;51.666;7.146;2024-02-23T04:56:52;7.20;82.40
5226;DHT22;2632;51.666;7.146;2024-02-23T04:59:19;7.30;83.90
5226;DHT22;2632;51.666;7.146;2024-02-23T05:01:45;7.20;82.60
5226;DHT22;2632;51.666;7.146;2024-02-23T05:04:12;7.30;82.40
5226;DHT22;2632;51.666;7.146;2024-02-23T05:06:39;7.30;83.70
5226;DHT22;2632;51.666;7.146;2024-02-23T05:09:06;7.20;81.60
5226;DHT22;2632;51.666;7.146;2024-02-23T05:11:35;7.20;81.60
5226;DHT22;2632;51.666;7.146;2024-02-23T05:14:02;7.30;82.70
5226;DHT22;2632;51.666;7.146;2024-02-23T05:16:29;7.30;83.00
5226;DHT22;2632;51.666;7.146;2024-02-23T05:18:55;7.30;82.90
5226;DHT22;2632;51.666;7.146;2024-02-23T05:21:22;7.30;82.50
5226;DHT22;2632;51.666;7.146;2024-02-23T05:23:48;7.30;82.40
5226;DHT22;2632;51.666;7.146;2024-02-23T05:26:15;7.30;82.60
5226;DHT22;2632;51.666;7.146;2024-02-23T05:28:42;7.30;81.80
5226;DHT22;2632;51.666;7.146;2024-02-23T05:31:09;7.30;82.60
5226;DHT22;2632;51.666;7.146;2024-02-23T05:33:36;7.30;81.40
5226;DHT22;2632;51.666;7.146;2024-02-23T05:36:05;7.20;81.70
5226;DHT22;2632;51.666;7.146;2024-02-23T05:38:32;7.20;82.20
5226;DHT22;2632;51.666;7.146;2024-02-23T05:40:58;7.20;82.60
5226;DHT22;2632;51.666;7.146;2024-02-23T05:43:25;7.10;81.20
5226;DHT22;2632;51.666;7.146;2024-02-23T05:45:52;7.10;82.90
5226;DHT22;2632;51.666;7.146;2024-02-23T05:48:18;7.10;81.10
5226;DHT22;2632;51.666;7.146;2024-02-23T05:50:46;7.10;82.40
5226;DHT22;2632;51.666;7.146;2024-02-23T05:53:12;7.10;81.40
5226;DHT22;2632;51.666;7.146;2024-02-23T05:55:39;7.20;82.40
5226;DHT22;2632;51.666;7.146;2024-02-23T05:58:06;7.10;81.30
5226;DHT22;2632;51.666;7.146;2024-02-23T06:00:32;7.20;82.10
5226;DHT22;2632;51.666;7.146;2024-02-23T06:02:59;7.20;81.50
5226;DHT22;2632;51.666;7.146;2024-02-23T06:05:26;7.10;80.20
5226;DHT22;2632;51.666;7.146;2024-02-23T06:07:55;7.10;80.20
5226;DHT22;2632;51.666;7.146;2024-02-23T06:10:21;7.20;80.80
5226;DHT22;2632;51.666;7.146;2024-02-23T06:12:48;7.10;80.10
5226;DHT22;2632;51.666;7.146;2024-02-23T06:15:15;7.00;81.10
5226;DHT22;2632;51.666;7.146;2024-02-23T06:17:41;7.00;81.50
5226;DHT22;2632;51.666;7.146;2024-02-23T06:20:09;7.00;81.00
5226;DHT22;2632;51.666;7.146;2024-02-23T06:22:36;7.10;82.20
5226;DHT22;2632;51.666;7.146;2024-02-23T06:25:03;7.00;81.90
5226;DHT22;2632;51.666;7.146;2024-02-23T06:27:29;6.90;81.30
5226;DHT22;2632;51.666;7.146;2024-02-23T06:29:56;6.90;82.60
5226;DHT22;2632;51.666;7.146;2024-02-23T06:32:23;7.00;82.50
5226;DHT22;2632;51.666;7.146;2024-02-23T06:34:49;7.00;81.70
5226;DHT22;2632;51.666;7.146;2024-02-23T06:37:16;7.00;82.10
5226;DHT22;2632;51.666;7.146;2024-02-23T06:39:43;7.10;82.70
5226;DHT22;2632;51.666;7.146;2024-02-23T06:42:10;7.00;81.00
5226;DHT22;2632;51.666;7.146;2024-02-23T06:44:37;7.00;80.80
5226;DHT22;2632;51.666;7.146;2024-02-23T06:47:04;7.10;81.90
5226;DHT22;2632;51.666;7.146;2024-02-23T06:49:30;7.10;81.20
5226;DHT22;2632;51.666;7.146;2024-02-23T06:51:57;7.20;81.80
5226;DHT22;2632;51.666;7.146;2024-02-23T06:54:24;7.20;80.00
5226;DHT22;2632;51.666;7.146;2024-02-23T06:56:50;7.10;80.70
5226;DHT22;2632;51.666;7.146;2024-02-23T06:59:17;7.00;80.30
5226;DHT22;2632;51.666;7.146;2024-02-23T07:01:50;7.10;80.30
5226;DHT22;2632;51.666;7.146;2024-02-23T07:04:17;7.10;81.00
5226;DHT22;2632;51.666;7.146;2024-02-23T07:06:44;7.20;80.30
5226;DHT22;2632;51.666;7.146;2024-02-23T07:09:11;7.10;80.60
5226;DHT22;2632;51.666;7.146;2024-02-23T07:11:39;7.20;81.40
5226;DHT22;2632;51.666;7.146;2024-02-23T07:14:06;7.30;80.40
5226;DHT22;2632;51.666;7.146;2024-02-23T07:16:33;7.30;80.80
5226;DHT22;2632;51.666;7.146;2024-02-23T07:19:03;7.30;80.90
5226;DHT22;2632;51.666;7.146;2024-02-23T07:21:30;7.30;80.60
5226;DHT22;2632;51.666;7.146;2024-02-23T07:23:57;7.20;79.00
5226;DHT22;2632;51.666;7.146;2024-02-23T07:26:23;7.30;79.90
5226;DHT22;2632;51.666;7.146;2024-02-23T07:28:50;7.60;79.00
5226;DHT22;2632;51.666;7.146;2024-02-23T07:31:16;8.40;76.90
5226;DHT22;2632;51.666;7.146;2024-02-23T07:33:43;8.90;76.60
5226;DHT22;2632;51.666;7.146;2024-02-23T07:36:16;8.70;74.80
5226;DHT22;2632;51.666;7.146;2024-02-23T07:38:43;8.70;75.90
5226;DHT22;2632;51.666;7.146;2024-02-23T07:41:11;8.80;74.70
5226;DHT22;2632;51.666;7.146;2024-02-23T07:43:39;8.70;75.10
5226;DHT22;2632;51.666;7.146;2024-02-23T07:46:06;8.50;75.60
5226;DHT22;2632;51.666;7.146;2024-02-23T07:48:35;8.60;76.40
5226;DHT22;2632;51.666;7.146;2024-02-23T07:51:04;8.30;78.30
5226;DHT22;2632;51.666;7.146;2024-02-23T07:53:31;8.50;76.60
5226;DHT22;2632;51.666;7.146;2024-02-23T07:55:59;8.80;73.10
5226;DHT22;2632;51.666;7.146;2024-02-23T07:58:28;9.40;73.50
5226;DHT22;2632;51.666;7.146;2024-02-23T08:00:55;9.40;72.50
5226;DHT22;2632;51.666;7.146;2024-02-23T08:03:21;9.10;72.90
5226;DHT22;2632;51.666;7.146;2024-02-23T08:05:48;8.80;74.10
5226;DHT22;2632;51.666;7.146;2024-02-23T08:08:15;8.70;76.10
5226;DHT22;2632;51.666;7.146;2024-02-23T08:10:42;8.60;75.40
5226;DHT22;2632;51.666;7.146;2024-02-23T08:13:08;8.90;75.20
5226;DHT22;2632;51.666;7.146;2024-02-23T08:15:37;9.50;73.30
5226;DHT22;2632;51.666;7.146;2024-02-23T08:18:03;10.10;69.90
5226;DHT22;2632;51.666;7.146;2024-02-23T08:20:30;10.20;71.00
5226;DHT22;2632;51.666;7.146;2024-02-23T08:22:57;10.80;68.60
5226;DHT22;2632;51.666;7.146;2024-02-23T08:25:24;9.80;69.70
5226;DHT22;2632;51.666;7.146;2024-02-23T08:27:50;11.00;71.30
5226;DHT22;2632;51.666;7.146;2024-02-23T08:30:17;9.90;71.90
5226;DHT22;2632;51.666;7.146;2024-02-23T08:32:46;9.90;71.30
5226;DHT22;2632;51.666;7.146;2024-02-23T08:35:13;9.90;69.30
5226;DHT22;2632;51.666;7.146;2024-02-23T08:37:41;9.90;70.60
5226;DHT22;2632;51.666;7.146;2024-02-23T08:40:09;9.60;70.80
5226;DHT22;2632;51.666;7.146;2024-02-23T08:42:36;9.40;72.50
5226;DHT22;2632;51.666;7.146;2024-02-23T08:45:03;9.60;72.60
5226;DHT22;2632;51.666;7.146;2024-02-23T08:47:30;9.90;71.40
5226;DHT22;2632;51.666;7.146;2024-02-23T08:50:02;11.60;67.40
5226;DHT22;2632;51.666;7.146;2024-02-23T08:52:29;12.80;62.10
5226;DHT22;2632;51.666;7.146;2024-02-23T08:54:56;12.10;63.10
5226;DHT22;2632;51.666;7.146;2024-02-23T08:57:23;12.10;67.40
5226;DHT22;2632;51.666;7.146;2024-02-23T08:59:50;11.70;67.10
5226;DHT22;2632;51.666;7.146;2024-02-23T09:02:16;10.70;68.80
5226;DHT22;2632;51.666;7.146;2024-02-23T09:04:43;10.10;69.00
5226;DHT22;2632;51.666;7.146;2024-02-23T09:07:12;10.40;70.20
5226;DHT22;2632;51.666;7.146;2024-02-23T09:09:39;9.50;70.00
5226;DHT22;2632;51.666;7.146;2024-02-23T09:12:06;9.30;71.10
5226;DHT22;2632;51.666;7.146;2024-02-23T09:14:37;9.40;72.20
5226;DHT22;2632;51.666;7.146;2024-02-23T09:17:08;9.10;72.40
5226;DHT22;2632;51.666;7.146;2024-02-23T09:19:35;9.10;72.20
5226;DHT22;2632;51.666;7.146;2024-02-23T09:22:03;9.20;75.30
5226;DHT22;2632;51.666;7.146;2024-02-23T09:24:30;9.30;72.50
5226;DHT22;2632;51.666;7.146;2024-02-23T09:26:56;9.30;72.00
5226;DHT22;2632;51.666;7.146;2024-02-23T09:29:23;9.00;72.60
5226;DHT22;2632;51.666;7.146;2024-02-23T09:31:50;8.70;72.70
5226;DHT22;2632;51.666;7.146;2024-02-23T09:34:16;8.80;75.10
5226;DHT22;2632;51.666;7.146;2024-02-23T09:36:43;8.90;73.60
5226;DHT22;2632;51.666;7.146;2024-02-23T09:39:14;9.30;73.40
5226;DHT22;2632;51.666;7.146;2024-02-23T09:41:42;9.10;72.80
5226;DHT22;2632;51.666;7.146;2024-02-23T09:44:09;9.10;73.40
5226;DHT22;2632;51.666;7.146;2024-02-23T09:46:40;8.90;72.40
5226;DHT22;2632;51.666;7.146;2024-02-23T09:49:07;9.30;72.60
5226;DHT22;2632;51.666;7.146;2024-02-23T09:51:35;9.30;71.50
5226;DHT22;2632;51.666;7.146;2024-02-23T09:54:03;9.20;72.70
5226;DHT22;2632;51.666;7.146;2024-02-23T09:56:30;9.40;72.70
5226;DHT22;2632;51.666;7.146;2024-02-23T09:59:00;9.40;71.70
5226;DHT22;2632;51.666;7.146;2024-02-23T10:01:29;9.10;71.70
5226;DHT22;2632;51.666;7.146;2024-02-23T10:04:04;9.10;71.90
5226;DHT22;2632;51.666;7.146;2024-02-23T10:06:32;9.20;73.10
5226;DHT22;2632;51.666;7.146;2024-02-23T10:08:59;9.10;71.60
5226;DHT22;2632;51.666;7.146;2024-02-23T10:11:26;9.20;72.10
5226;DHT22;2632;51.666;7.146;2024-02-23T10:13:53;9.20;73.40
5226;DHT22;2632;51.666;7.146;2024-02-23T10:16:21;9.30;72.00
5226;DHT22;2632;51.666;7.146;2024-02-23T10:18:48;9.30;71.60
5226;DHT22;2632;51.666;7.146;2024-02-23T10:21:16;9.20;70.80
5226;DHT22;2632;51.666;7.146;2024-02-23T10:23:47;9.20;71.00
5226;DHT22;2632;51.666;7.146;2024-02-23T10:26:14;9.20;70.70
5226;DHT22;2632;51.666;7.146;2024-02-23T10:28:45;9.30;71.60
5226;DHT22;2632;51.666;7.146;2024-02-23T10:31:13;9.30;70.50
5226;DHT22;2632;51.666;7.146;2024-02-23T10:33:40;9.40;71.10
5226;DHT22;2632;51.666;7.146;2024-02-23T10:36:07;9.30;70.40
5226;DHT22;2632;51.666;7.146;2024-02-23T10:38:35;9.20;70.60
5226;DHT22;2632;51.666;7.146;2024-02-23T10:41:05;9.30;71.40
5226;DHT22;2632;51.666;7.146;2024-02-23T10:43:38;9.50;71.00
5226;DHT22;2632;51.666;7.146;2024-02-23T10:46:08;9.50;70.20
5226;DHT22;2632;51.666;7.146;2024-02-23T10:48:41;9.50;70.80
5226;DHT22;2632;51.666;7.146;2024-02-23T10:51:08;9.50;70.30
5226;DHT22;2632;51.666;7.146;2024-02-23T10:53:37;9.40;69.40
5226;DHT22;2632;51.666;7.146;2024-02-23T10:56:05;9.20;69.30
5226;DHT22;2632;51.666;7.146;2024-02-23T10:58:33;9.40;70.90
5226;DHT22;2632;51.666;7.146;2024-02-23T11:01:06;9.50;71.00
5226;DHT22;2632;51.666;7.146;2024-02-23T11:03:35;9.50;69.60
5226;DHT22;2632;51.666;7.146;2024-02-23T11:06:06;9.40;70.30
5226;DHT22;2632;51.666;7.146;2024-02-23T11:08:33;9.50;70.70
5226;DHT22;2632;51.666;7.146;2024-02-23T11:11:07;9.50;70.50
5226;DHT22;2632;51.666;7.146;2024-02-23T11:13:35;9.60;70.90
5226;DHT22;2632;51.666;7.146;2024-02-23T11:16:07;9.60;70.20
5226;DHT22;2632;51.666;7.146;2024-02-23T11:18:36;9.60;71.10
5226;DHT22;2632;51.666;7.146;2024-02-23T11:21:04;9.60;71.20
5226;DHT22;2632;51.666;7.146;2024-02-23T11:23:47;9.70;71.20
5226;DHT22;2632;51.666;7.146;2024-02-23T11:26:15;9.60;70.90
5226;DHT22;2632;51.666;7.146;2024-02-23T11:28:49;9.60;70.20
5226;DHT22;2632;51.666;7.146;2024-02-23T11:31:28;9.70;70.10
5226;DHT22;2632;51.666;7.146;2024-02-23T11:33:56;9.60;70.70
5226;DHT22;2632;51.666;7.146;2024-02-23T11:36:28;9.60;69.60
5226;DHT22;2632;51.666;7.146;2024-02-23T11:38:57;9.60;69.80
5226;DHT22;2632;51.666;7.146;2024-02-23T11:41:24;9.70;71.00
5226;DHT22;2632;51.666;7.146;2024-02-23T11:43:55;9.70;70.20
5226;DHT22;2632;51.666;7.146;2024-02-23T11:46:22;9.60;69.50
5226;DHT22;2632;51.666;7.146;2024-02-23T11:48:50;9.80;70.20
5226;DHT22;2632;51.666;7.146;2024-02-23T11:51:23;9.80;71.90
5226;DHT22;2632;51.666;7.146;2024-02-23T11:53:53;9.90;68.30
5226;DHT22;2632;51.666;7.146;2024-02-23T11:56:22;9.80;69.70
5226;DHT22;2632;51.666;7.146;2024-02-23T11:58:49;9.70;70.70
5226;DHT22;2632;51.666;7.146;2024-02-23T12:01:15;9.80;71.30
5226;DHT22;2632;51.666;7.146;2024-02-23T12:03:42;9.70;71.10
5226;DHT22;2632;51.666;7.146;2024-02-23T12:06:11;9.60;69.80
5226;DHT22;2632;51.666;7.146;2024-02-23T12:08:37;9.60;71.90
5226;DHT22;2632;51.666;7.146;2024-02-23T12:11:05;9.50;70.60
5226;DHT22;2632;51.666;7.146;2024-02-23T12:13:38;9.50;70.50
5226;DHT22;2632;51.666;7.146;2024-02-23T12:16:07;9.50;69.80
5226;DHT22;2632;51.666;7.146;2024-02-23T12:18:35;9.50;69.60
5226;DHT22;2632;51.666;7.146;2024-02-23T12:21:05;9.50;69.70
5226;DHT22;2632;51.666;7.146;2024-02-23T12:23:39;9.40;71.40
5226;DHT22;2632;51.666;7.146;2024-02-23T12:26:07;9.40;70.30
5226;DHT22;2632;51.666;7.146;2024-02-23T12:28:34;9.50;71.70
5226;DHT22;2632;51.666;7.146;2024-02-23T12:31:02;9.50;72.70
5226;DHT22;2632;51.666;7.146;2024-02-23T12:33:34;9.50;72.60
5226;DHT22;2632;51.666;7.146;2024-02-23T12:36:03;9.40;71.80
5226;DHT22;2632;51.666;7.146;2024-02-23T12:38:31;9.40;71.30
5226;DHT22;2632;51.666;7.146;2024-02-23T12:40:58;9.50;72.60
5226;DHT22;2632;51.666;7.146;2024-02-23T12:43:25;9.70;71.30
5226;DHT22;2632;51.666;7.146;2024-02-23T12:45:53;9.70;70.90
5226;DHT22;2632;51.666;7.146;2024-02-23T12:48:21;9.80;72.30
5226;DHT22;2632;51.666;7.146;2024-02-23T12:50:49;10.00;70.30
5226;DHT22;2632;51.666;7.146;2024-02-23T12:53:39;9.90;70.00
5226;DHT22;2632;51.666;7.146;2024-02-23T12:56:11;9.90;70.60
5226;DHT22;2632;51.666;7.146;2024-02-23T12:58:39;9.70;70.90
5226;DHT22;2632;51.666;7.146;2024-02-23T13:01:07;9.60;72.30
5226;DHT22;2632;51.666;7.146;2024-02-23T13:03:35;9.70;72.50
5226;DHT22;2632;51.666;7.146;2024-02-23T13:06:03;9.70;72.80
5226;DHT22;2632;51.666;7.146;2024-02-23T13:08:30;9.80;73.10
5226;DHT22;2632;51.666;7.146;2024-02-23T13:10:57;9.70;72.60
5226;DHT22;2632;51.666;7.146;2024-02-23T13:13:24;9.60;73.90
5226;DHT22;2632;51.666;7.146;2024-02-23T13:15:52;9.60;74.80
5226;DHT22;2632;51.666;7.146;2024-02-23T13:18:19;9.50;76.10
5226;DHT22;2632;51.666;7.146;2024-02-23T13:20:46;9.50;76.30
5226;DHT22;2632;51.666;7.146;2024-02-23T13:23:13;9.40;77.80
5226;DHT22;2632;51.666;7.146;2024-02-23T13:25:42;9.50;77.90
5226;DHT22;2632;51.666;7.146;2024-02-23T13:28:09;9.60;76.90
5226;DHT22;2632;51.666;7.146;2024-02-23T13:30:36;9.60;76.20
5226;DHT22;2632;51.666;7.146;2024-02-23T13:33:04;9.60;76.20
5226;DHT22;2632;51.666;7.146;2024-02-23T13:35:31;9.60;76.30
5226;DHT22;2632;51.666;7.146;2024-02-23T13:37:59;9.50;77.00
5226;DHT22;2632;51.666;7.146;2024-02-23T13:40:26;9.40;75.40
5226;DHT22;2632;51.666;7.146;2024-02-23T13:42:52;9.40;76.30
5226;DHT22;2632;51.666;7.146;2024-02-23T13:45:20;9.30;75.60
5226;DHT22;2632;51.666;7.146;2024-02-23T13:48:02;9.40;76.70
5226;DHT22;2632;51.666;7.146;2024-02-23T13:50:30;9.20;77.60
5226;DHT22;2632;51.666;7.146;2024-02-23T13:52:57;9.20;79.80
5226;DHT22;2632;51.666;7.146;2024-02-23T13:55:24;9.20;79.70
5226;DHT22;2632;51.666;7.146;2024-02-23T13:57:50;9.10;79.30
5226;DHT22;2632;51.666;7.146;2024-02-23T14:00:18;9.00;77.80
5226;DHT22;2632;51.666;7.146;2024-02-23T14:02:46;9.10;79.10
5226;DHT22;2632;51.666;7.146;2024-02-23T14:05:13;9.20;77.70
5226;DHT22;2632;51.666;7.146;2024-02-23T14:07:42;9.30;76.20
5226;DHT22;2632;51.666;7.146;2024-02-23T14:10:09;9.40;77.60
5226;DHT22;2632;51.666;7.146;2024-02-23T14:12:36;9.30;75.20
5226;DHT22;2632;51.666;7.146;2024-02-23T14:15:03;9.40;75.90
5226;DHT22;2632;51.666;7.146;2024-02-23T14:17:31;9.40;75.50
5226;DHT22;2632;51.666;7.146;2024-02-23T14:19:58;9.50;76.50
5226;DHT22;2632;51.666;7.146;2024-02-23T14:22:25;9.60;76.00
5226;DHT22;2632;51.666;7.146;2024-02-23T14:24:54;9.50;75.00
5226;DHT22;2632;51.666;7.146;2024-02-23T14:27:21;9.50;74.10
5226;DHT22;2632;51.666;7.146;2024-02-23T14:29:48;9.60;75.00
5226;DHT22;2632;51.666;7.146;2024-02-23T14:32:16;9.60;74.00
5226;DHT22;2632;51.666;7.146;2024-02-23T14:34:43;9.50;74.10
5226;DHT22;2632;51.666;7.146;2024-02-23T14:37:10;9.50;74.70
5226;DHT22;2632;51.666;7.146;2024-02-23T14:39:37;9.60;72.30
5226;DHT22;2632;51.666;7.146;2024-02-23T14:42:04;12.40;75.50
5226;DHT22;2632;51.666;7.146;2024-02-23T14:44:31;9.60;73.60
5226;DHT22;2632;51.666;7.146;2024-02-23T14:46:57;9.70;74.20
5226;DHT22;2632;51.666;7.146;2024-02-23T14:49:24;9.60;72.00
5226;DHT22;2632;51.666;7.146;2024-02-23T14:51:51;9.80;75.70
5226;DHT22;2632;51.666;7.146;2024-02-23T14:54:17;9.80;72.70
5226;DHT22;2632;51.666;7.146;2024-02-23T14:56:44;9.80;72.60
5226;DHT22;2632;51.666;7.146;2024-02-23T14:59:11;9.80;72.50
5226;DHT22;2632;51.666;7.146;2024-02-23T15:01:38;9.90;72.80
5226;DHT22;2632;51.666;7.146;2024-02-23T15:04:08;9.80;70.90
5226;DHT22;2632;51.666;7.146;2024-02-23T15:06:35;9.80;71.60
5226;DHT22;2632;51.666;7.146;2024-02-23T15:09:04;9.90;71.50
5226;DHT22;2632;51.666;7.146;2024-02-23T15:11:31;9.80;71.80
5226;DHT22;2632;51.666;7.146;2024-02-23T15:13:58;9.90;72.30
5226;DHT22;2632;51.666;7.146;2024-02-23T15:16:26;9.90;71.80
5226;DHT22;2632;51.666;7.146;2024-02-23T15:18:53;10.10;72.40
5226;DHT22;2632;51.666;7.146;2024-02-23T15:21:20;10.10;70.60
5226;DHT22;2632;51.666;7.146;2024-02-23T15:23:47;10.10;69.70
5226;DHT22;2632;51.666;7.146;2024-02-23T15:26:13;10.10;69.20
5226;DHT22;2632;51.666;7.146;2024-02-23T15:28:40;10.10;70.50
5226;DHT22;2632;51.666;7.146;2024-02-23T15:31:07;10.10;70.20
5226;DHT22;2632;51.666;7.146;2024-02-23T15:33:35;10.10;68.80
5226;DHT22;2632;51.666;7.146;2024-02-23T15:36:06;10.10;68.30
5226;DHT22;2632;51.666;7.146;2024-02-23T15:38:35;10.20;70.30
5226;DHT22;2632;51.666;7.146;2024-02-23T15:41:03;10.00;69.60
5226;DHT22;2632;51.666;7.146;2024-02-23T15:43:30;10.10;70.20
5226;DHT22;2632;51.666;7.146;2024-02-23T15:45:57;10.00;69.40
5226;DHT22;2632;51.666;7.146;2024-02-23T15:48:24;9.90;71.10
5226;DHT22;2632;51.666;7.146;2024-02-23T15:50:52;9.90;69.80
5226;DHT22;2632;51.666;7.146;2024-02-23T15:53:38;9.90;70.90
5226;DHT22;2632;51.666;7.146;2024-02-23T15:56:05;9.90;71.50
5226;DHT22;2632;51.666;7.146;2024-02-23T15:58:32;9.80;71.20
5226;DHT22;2632;51.666;7.146;2024-02-23T16:00:59;9.70;71.60
5226;DHT22;2632;51.666;7.146;2024-02-23T16:03:26;9.60;72.60
5226;DHT22;2632;51.666;7.146;2024-02-23T16:05:52;9.60;72.10
5226;DHT22;2632;51.666;7.146;2024-02-23T16:08:44;9.50;72.70
5226;DHT22;2632;51.666;7.146;2024-02-23T16:11:13;9.50;73.40
5226;DHT22;2632;51.666;7.146;2024-02-23T16:13:40;9.60;75.60
5226;DHT22;2632;51.666;7.146;2024-02-23T16:16:09;9.50;76.20
5226;DHT22;2632;51.666;7.146;2024-02-23T16:18:37;9.40;78.80